sensor_id;sensor_type;location;lat;lon;timestamp;temperature;humidity
45983;DHT22;31711;47.158;7.346;2023-01-06T00:02:00;5.80;99.90
45983;DHT22;31711;47.158;7.346;2023-01-06T00:04:27;5.90;99.90
45983;DHT22;31711;47.158;7.346;2023-01-06T00:06:53;5.80;99.90
45983;DHT22;31711;47.158;7.346;2023-01-06T00:09:19;5.70;99.90
45983;DHT22;31711;47.158;7.346;2023-01-06T00:11:45;5.60;99.90
45983;DHT22;31711;47.158;7.346;2023-01-06T00:14:11;5.60;99.90
45983;DHT22;31711;47.158;7.346;2023-01-06T00:16:36;5.80;99.90
45983;DHT22;31711;47.158;7.346;2023-01-06T00:19:02;5.80;99.90
45983;DHT22;31711;47.158;7.346;2023-01-06T00:21:29;5.90;99.90
45983;DHT22;31711;47.158;7.346;2023-01-06T00:23:55;5.80;99.90
45983;DHT22;31711;47.158;7.346;2023-01-06T00:26:21;5.90;99.90
45983;DHT22;31711;47.158;7.346;2023-01-06T00:28:51;6.00;99.90
45983;DHT22;31711;47.158;7.346;2023-01-06T00:31:17;6.00;99.90
45983;DHT22;31711;47.158;7.346;2023-01-06T00:33:43;6.00;99.90
45983;DHT22;31711;47.158;7.346;2023-01-06T00:36:11;6.00;99.90
45983;DHT22;31711;47.158;7.346;2023-01-06T00:38:38;6.20;99.90
45983;DHT22;31711;47.158;7.346;2023-01-06T00:41:09;6.30;99.90
45983;DHT22;31711;47.158;7.346;2023-01-06T00:43:58;6.30;99.90
45983;DHT22;31711;47.158;7.346;2023-01-06T00:46:25;6.30;99.90
45983;DHT22;31711;47.158;7.346;2023-01-06T00:48:57;6.40;99.90
45983;DHT22;31711;47.158;7.346;2023-01-06T00:51:23;6.30;99.90
45983;DHT22;31711;47.158;7.346;2023-01-06T00:53:49;6.40;99.90
45983;DHT22;31711;47.158;7.346;2023-01-06T00:56:15;6.40;99.90
45983;DHT22;31711;47.158;7.346;2023-01-06T00:58:41;6.30;99.90
45983;DHT22;31711;47.158;7.346;2023-01-06T01:01:07;6.40;99.90
45983;DHT22;31711;47.158;7.346;2023-01-06T01:03:35;6.20;99.90
45983;DHT22;31711;47.158;7.346;2023-01-06T01:06:03;6.10;99.90
45983;DHT22;31711;47.158;7.346;2023-01-06T01:08:30;6.00;99.90
45983;DHT22;31711;47.158;7.346;2023-01-06T01:11:02;6.00;99.90
45983;DHT22;31711;47.158;7.346;2023-01-06T01:13:29;6.10;99.90
45983;DHT22;31711;47.158;7.346;2023-01-06T01:15:55;6.10;99.90
45983;DHT22;31711;47.158;7.346;2023-01-06T01:18:21;6.00;99.90
45983;DHT22;31711;47.158;7.346;2023-01-06T01:20:47;6.00;99.90
45983;DHT22;31711;47.158;7.346;2023-01-06T01:23:13;6.10;99.90
45983;DHT22;31711;47.158;7.346;2023-01-06T01:25:39;6.10;99.90
45983;DHT22;31711;47.158;7.346;2023-01-06T01:28:06;6.10;99.90
45983;DHT22;31711;47.158;7.346;2023-01-06T01:30:32;6.20;99.90
45983;DHT22;31711;47.158;7.346;2023-01-06T01:32:57;6.20;99.90
45983;DHT22;31711;47.158;7.346;2023-01-06T01:35:24;6.20;99.90
45983;DHT22;31711;47.158;7.346;2023-01-06T01:37:50;6.30;99.90
45983;DHT22;31711;47.158;7.346;2023-01-06T01:40:16;6.40;99.90
45983;DHT22;31711;47.158;7.346;2023-01-06T01:42:42;6.20;99.90
45983;DHT22;31711;47.158;7.346;2023-01-06T01:45:27;6.20;99.90
45983;DHT22;31711;47.158;7.346;2023-01-06T01:48:04;6.30;99.90
45983;DHT22;31711;47.158;7.346;2023-01-06T01:50:45;6.30;99.90
45983;DHT22;31711;47.158;7.346;2023-01-06T01:53:19;6.40;99.90
45983;DHT22;31711;47.158;7.346;2023-01-06T01:55:47;6.50;99.90
45983;DHT22;31711;47.158;7.346;2023-01-06T01:58:24;6.50;99.90
45983;DHT22;31711;47.158;7.346;2023-01-06T02:00:52;6.50;99.90
45983;DHT22;31711;47.158;7.346;2023-01-06T02:03:20;6.60;99.90
45983;DHT22;31711;47.158;7.346;2023-01-06T02:05:53;6.60;99.90
45983;DHT22;31711;47.158;7.346;2023-01-06T02:11:03;6.40;99.90
45983;DHT22;31711;47.158;7.346;2023-01-06T02:13:31;6.40;99.90
45983;DHT22;31711;47.158;7.346;2023-01-06T02:16:29;6.40;99.90
45983;DHT22;31711;47.158;7.346;2023-01-06T02:46:27;6.00;99.90
45983;DHT22;31711;47.158;7.346;2023-01-06T02:51:39;6.00;99.90
45983;DHT22;31711;47.158;7.346;2023-01-06T02:54:55;6.10;99.90
45983;DHT22;31711;47.158;7.346;2023-01-06T02:57:26;6.10;99.90
45983;DHT22;31711;47.158;7.346;2023-01-06T03:02:36;6.00;99.90
45983;DHT22;31711;47.158;7.346;2023-01-06T03:05:05;6.10;99.90
45983;DHT22;31711;47.158;7.346;2023-01-06T03:07:32;6.00;99.90
45983;DHT22;31711;47.158;7.346;2023-01-06T03:10:00;6.00;99.90
45983;DHT22;31711;47.158;7.346;2023-01-06T03:12:51;6.00;99.90
45983;DHT22;31711;47.158;7.346;2023-01-06T03:15:18;6.00;99.90
45983;DHT22;31711;47.158;7.346;2023-01-06T03:17:44;6.00;99.90
45983;DHT22;31711;47.158;7.346;2023-01-06T03:20:11;6.00;99.90
45983;DHT22;31711;47.158;7.346;2023-01-06T03:22:38;6.00;99.90
45983;DHT22;31711;47.158;7.346;2023-01-06T03:25:07;6.10;99.90
45983;DHT22;31711;47.158;7.346;2023-01-06T03:27:33;6.10;99.90
45983;DHT22;31711;47.158;7.346;2023-01-06T03:30:00;6.10;99.90
45983;DHT22;31711;47.158;7.346;2023-01-06T03:32:32;6.10;99.90
45983;DHT22;31711;47.158;7.346;2023-01-06T03:35:33;6.20;99.90
45983;DHT22;31711;47.158;7.346;2023-01-06T03:41:13;6.20;99.90
45983;DHT22;31711;47.158;7.346;2023-01-06T03:44:05;6.20;99.90
45983;DHT22;31711;47.158;7.346;2023-01-06T03:46:43;6.30;99.90
45983;DHT22;31711;47.158;7.346;2023-01-06T03:49:17;6.30;99.90
45983;DHT22;31711;47.158;7.346;2023-01-06T03:54:26;6.40;99.90
45983;DHT22;31711;47.158;7.346;2023-01-06T03:59:22;6.20;99.90
45983;DHT22;31711;47.158;7.346;2023-01-06T04:01:50;6.10;99.90
45983;DHT22;31711;47.158;7.346;2023-01-06T04:04:19;6.20;99.90
45983;DHT22;31711;47.158;7.346;2023-01-06T04:06:45;6.30;99.90
45983;DHT22;31711;47.158;7.346;2023-01-06T04:09:11;6.30;99.90
45983;DHT22;31711;47.158;7.346;2023-01-06T04:11:37;6.20;99.90
45983;DHT22;31711;47.158;7.346;2023-01-06T04:14:22;6.20;99.90
45983;DHT22;31711;47.158;7.346;2023-01-06T04:16:48;6.30;99.90
45983;DHT22;31711;47.158;7.346;2023-01-06T04:19:14;6.30;99.90
45983;DHT22;31711;47.158;7.346;2023-01-06T04:21:40;6.40;99.90
45983;DHT22;31711;47.158;7.346;2023-01-06T04:24:06;6.40;99.90
45983;DHT22;31711;47.158;7.346;2023-01-06T04:26:32;6.30;99.90
45983;DHT22;31711;47.158;7.346;2023-01-06T04:29:01;6.30;99.90
45983;DHT22;31711;47.158;7.346;2023-01-06T04:31:27;6.20;99.90
45983;DHT22;31711;47.158;7.346;2023-01-06T04:33:53;6.20;99.90
45983;DHT22;31711;47.158;7.346;2023-01-06T04:36:19;6.30;99.90
45983;DHT22;31711;47.158;7.346;2023-01-06T04:38:46;6.40;99.90
45983;DHT22;31711;47.158;7.346;2023-01-06T04:41:12;6.50;99.90
45983;DHT22;31711;47.158;7.346;2023-01-06T04:43:38;6.50;99.90
45983;DHT22;31711;47.158;7.346;2023-01-06T04:46:04;6.50;99.90
45983;DHT22;31711;47.158;7.346;2023-01-06T04:48:30;6.50;99.90
45983;DHT22;31711;47.158;7.346;2023-01-06T04:51:07;6.60;99.90
45983;DHT22;31711;47.158;7.346;2023-01-06T04:53:36;6.70;99.90
45983;DHT22;31711;47.158;7.346;2023-01-06T04:56:07;6.70;99.90
45983;DHT22;31711;47.158;7.346;2023-01-06T04:58:34;6.70;99.90
45983;DHT22;31711;47.158;7.346;2023-01-06T05:01:01;6.70;99.90
45983;DHT22;31711;47.158;7.346;2023-01-06T06:03:02;6.20;99.90
45983;DHT22;31711;47.158;7.346;2023-01-06T06:05:28;6.20;99.90
45983;DHT22;31711;47.158;7.346;2023-01-06T06:07:54;6.30;99.90
45983;DHT22;31711;47.158;7.346;2023-01-06T06:10:22;6.40;99.90
45983;DHT22;31711;47.158;7.346;2023-01-06T06:12:49;6.40;99.90
45983;DHT22;31711;47.158;7.346;2023-01-06T06:15:17;6.40;99.90
45983;DHT22;31711;47.158;7.346;2023-01-06T06:17:43;6.40;99.90
45983;DHT22;31711;47.158;7.346;2023-01-06T06:20:09;6.40;99.90
45983;DHT22;31711;47.158;7.346;2023-01-06T06:22:35;6.50;99.90
45983;DHT22;31711;47.158;7.346;2023-01-06T06:25:00;6.50;99.90
45983;DHT22;31711;47.158;7.346;2023-01-06T06:27:27;6.50;99.90
45983;DHT22;31711;47.158;7.346;2023-01-06T06:29:53;6.50;99.90
45983;DHT22;31711;47.158;7.346;2023-01-06T06:32:19;6.40;99.90
45983;DHT22;31711;47.158;7.346;2023-01-06T06:34:44;6.40;99.90
45983;DHT22;31711;47.158;7.346;2023-01-06T06:37:10;6.20;99.90
45983;DHT22;31711;47.158;7.346;2023-01-06T06:39:36;6.30;99.90
45983;DHT22;31711;47.158;7.346;2023-01-06T06:42:02;6.30;99.90
45983;DHT22;31711;47.158;7.346;2023-01-06T06:44:28;6.30;99.90
45983;DHT22;31711;47.158;7.346;2023-01-06T06:46:54;6.40;99.90
45983;DHT22;31711;47.158;7.346;2023-01-06T06:49:20;6.30;99.90
45983;DHT22;31711;47.158;7.346;2023-01-06T06:51:46;6.30;99.90
45983;DHT22;31711;47.158;7.346;2023-01-06T06:54:13;6.20;99.90
45983;DHT22;31711;47.158;7.346;2023-01-06T06:56:39;6.20;99.90
45983;DHT22;31711;47.158;7.346;2023-01-06T06:59:05;6.10;99.90
45983;DHT22;31711;47.158;7.346;2023-01-06T07:01:31;6.10;99.90
45983;DHT22;31711;47.158;7.346;2023-01-06T07:03:57;6.10;99.90
45983;DHT22;31711;47.158;7.346;2023-01-06T07:06:24;6.20;99.90
45983;DHT22;31711;47.158;7.346;2023-01-06T07:08:52;6.20;99.90
45983;DHT22;31711;47.158;7.346;2023-01-06T07:11:18;6.10;99.90
45983;DHT22;31711;47.158;7.346;2023-01-06T07:13:45;6.00;99.90
45983;DHT22;31711;47.158;7.346;2023-01-06T07:16:11;6.00;99.90
45983;DHT22;31711;47.158;7.346;2023-01-06T07:18:37;6.00;99.90
45983;DHT22;31711;47.158;7.346;2023-01-06T07:21:03;6.00;99.90
45983;DHT22;31711;47.158;7.346;2023-01-06T07:23:30;6.00;99.90
45983;DHT22;31711;47.158;7.346;2023-01-06T07:25:58;6.00;99.90
45983;DHT22;31711;47.158;7.346;2023-01-06T07:28:26;6.00;99.90
45983;DHT22;31711;47.158;7.346;2023-01-06T07:30:53;6.10;99.90
45983;DHT22;31711;47.158;7.346;2023-01-06T07:33:19;6.20;99.90
45983;DHT22;31711;47.158;7.346;2023-01-06T07:35:46;6.20;99.90
45983;DHT22;31711;47.158;7.346;2023-01-06T07:38:12;6.30;99.90
45983;DHT22;31711;47.158;7.346;2023-01-06T07:40:38;6.30;99.90
45983;DHT22;31711;47.158;7.346;2023-01-06T07:43:09;6.30;99.90
45983;DHT22;31711;47.158;7.346;2023-01-06T07:45:35;6.40;99.90
45983;DHT22;31711;47.158;7.346;2023-01-06T07:48:02;6.40;99.90
45983;DHT22;31711;47.158;7.346;2023-01-06T07:50:28;6.50;99.90
45983;DHT22;31711;47.158;7.346;2023-01-06T07:52:59;6.50;99.90
45983;DHT22;31711;47.158;7.346;2023-01-06T07:55:25;6.60;99.90
45983;DHT22;31711;47.158;7.346;2023-01-06T07:57:51;6.70;99.90
45983;DHT22;31711;47.158;7.346;2023-01-06T08:00:17;6.70;99.90
45983;DHT22;31711;47.158;7.346;2023-01-06T08:02:43;6.80;99.90
45983;DHT22;31711;47.158;7.346;2023-01-06T08:05:09;6.80;99.90
45983;DHT22;31711;47.158;7.346;2023-01-06T08:07:36;6.90;99.90
45983;DHT22;31711;47.158;7.346;2023-01-06T08:10:02;6.80;99.90
45983;DHT22;31711;47.158;7.346;2023-01-06T08:12:28;6.80;99.90
45983;DHT22;31711;47.158;7.346;2023-01-06T08:14:54;6.80;99.90
45983;DHT22;31711;47.158;7.346;2023-01-06T08:17:20;6.90;99.90
45983;DHT22;31711;47.158;7.346;2023-01-06T08:19:46;6.90;99.90
45983;DHT22;31711;47.158;7.346;2023-01-06T08:22:12;6.90;99.90
45983;DHT22;31711;47.158;7.346;2023-01-06T08:24:38;7.00;99.90
45983;DHT22;31711;47.158;7.346;2023-01-06T08:27:04;7.00;99.90
45983;DHT22;31711;47.158;7.346;2023-01-06T08:29:30;7.10;99.90
45983;DHT22;31711;47.158;7.346;2023-01-06T08:31:56;7.10;99.90
45983;DHT22;31711;47.158;7.346;2023-01-06T08:34:22;7.20;99.90
45983;DHT22;31711;47.158;7.346;2023-01-06T08:36:48;7.20;99.90
45983;DHT22;31711;47.158;7.346;2023-01-06T08:39:14;7.10;99.90
45983;DHT22;31711;47.158;7.346;2023-01-06T08:41:40;7.20;99.90
45983;DHT22;31711;47.158;7.346;2023-01-06T08:44:06;7.20;99.90
45983;DHT22;31711;47.158;7.346;2023-01-06T08:46:32;7.30;99.90
45983;DHT22;31711;47.158;7.346;2023-01-06T08:48:59;7.30;99.90
45983;DHT22;31711;47.158;7.346;2023-01-06T08:51:25;7.40;99.90
45983;DHT22;31711;47.158;7.346;2023-01-06T08:53:52;7.20;99.90
45983;DHT22;31711;47.158;7.346;2023-01-06T08:56:26;7.30;99.90
45983;DHT22;31711;47.158;7.346;2023-01-06T08:58:58;7.30;99.90
45983;DHT22;31711;47.158;7.346;2023-01-06T09:01:30;7.40;99.90
45983;DHT22;31711;47.158;7.346;2023-01-06T09:03:58;7.40;99.90
45983;DHT22;31711;47.158;7.346;2023-01-06T09:06:24;7.30;99.90
45983;DHT22;31711;47.158;7.346;2023-01-06T09:08:50;7.30;99.90
45983;DHT22;31711;47.158;7.346;2023-01-06T09:11:16;7.40;99.90
45983;DHT22;31711;47.158;7.346;2023-01-06T09:13:43;7.30;99.90
45983;DHT22;31711;47.158;7.346;2023-01-06T09:16:10;7.20;99.90
45983;DHT22;31711;47.158;7.346;2023-01-06T09:18:36;7.30;99.90
45983;DHT22;31711;47.158;7.346;2023-01-06T09:21:03;7.30;99.90
45983;DHT22;31711;47.158;7.346;2023-01-06T09:23:30;7.40;99.90
45983;DHT22;31711;47.158;7.346;2023-01-06T09:25:56;7.50;99.90
45983;DHT22;31711;47.158;7.346;2023-01-06T09:28:23;7.60;99.90
45983;DHT22;31711;47.158;7.346;2023-01-06T09:30:50;7.60;99.90
45983;DHT22;31711;47.158;7.346;2023-01-06T09:33:16;7.50;99.90
45983;DHT22;31711;47.158;7.346;2023-01-06T09:35:43;7.30;99.90
45983;DHT22;31711;47.158;7.346;2023-01-06T09:38:10;7.30;99.90
45983;DHT22;31711;47.158;7.346;2023-01-06T09:41:16;7.40;99.90
45983;DHT22;31711;47.158;7.346;2023-01-06T09:46:33;7.50;99.90
45983;DHT22;31711;47.158;7.346;2023-01-06T09:49:30;7.40;99.90
45983;DHT22;31711;47.158;7.346;2023-01-06T09:52:08;7.40;99.90
45983;DHT22;31711;47.158;7.346;2023-01-06T09:54:42;7.40;99.90
45983;DHT22;31711;47.158;7.346;2023-01-06T09:57:14;7.50;99.90
45983;DHT22;31711;47.158;7.346;2023-01-06T10:00:00;7.50;99.90
45983;DHT22;31711;47.158;7.346;2023-01-06T10:02:34;7.40;99.90
45983;DHT22;31711;47.158;7.346;2023-01-06T10:05:02;7.70;99.90
45983;DHT22;31711;47.158;7.346;2023-01-06T10:07:31;7.90;99.90
45983;DHT22;31711;47.158;7.346;2023-01-06T10:10:29;8.10;99.90
45983;DHT22;31711;47.158;7.346;2023-01-06T10:21:47;8.00;99.90
45983;DHT22;31711;47.158;7.346;2023-01-06T10:24:32;8.10;99.90
45983;DHT22;31711;47.158;7.346;2023-01-06T10:27:24;8.10;99.90
45983;DHT22;31711;47.158;7.346;2023-01-06T10:29:53;8.20;99.90
45983;DHT22;31711;47.158;7.346;2023-01-06T10:32:21;8.30;99.90
45983;DHT22;31711;47.158;7.346;2023-01-06T10:34:49;8.30;99.90
45983;DHT22;31711;47.158;7.346;2023-01-06T10:39:43;8.10;99.90
45983;DHT22;31711;47.158;7.346;2023-01-06T10:42:36;8.00;99.90
45983;DHT22;31711;47.158;7.346;2023-01-06T10:48:00;8.00;99.90
45983;DHT22;31711;47.158;7.346;2023-01-06T10:50:27;8.10;99.90
45983;DHT22;31711;47.158;7.346;2023-01-06T10:52:53;8.10;99.90
45983;DHT22;31711;47.158;7.346;2023-01-06T10:58:34;8.10;99.90
45983;DHT22;31711;47.158;7.346;2023-01-06T11:01:24;8.10;99.90
45983;DHT22;31711;47.158;7.346;2023-01-06T11:04:11;8.10;99.90
45983;DHT22;31711;47.158;7.346;2023-01-06T11:06:53;8.10;99.90
45983;DHT22;31711;47.158;7.346;2023-01-06T11:09:43;8.20;99.90
45983;DHT22;31711;47.158;7.346;2023-01-06T11:12:19;8.30;99.90
45983;DHT22;31711;47.158;7.346;2023-01-06T11:14:58;8.20;99.90
45983;DHT22;31711;47.158;7.346;2023-01-06T11:17:26;8.10;99.90
45983;DHT22;31711;47.158;7.346;2023-01-06T11:22:37;8.30;99.90
45983;DHT22;31711;47.158;7.346;2023-01-06T11:31:03;8.40;99.90
45983;DHT22;31711;47.158;7.346;2023-01-06T11:33:27;8.50;99.90
45983;DHT22;31711;47.158;7.346;2023-01-06T11:35:54;8.50;99.90
45983;DHT22;31711;47.158;7.346;2023-01-06T11:38:21;8.60;99.90
45983;DHT22;31711;47.158;7.346;2023-01-06T11:40:51;8.60;99.90
45983;DHT22;31711;47.158;7.346;2023-01-06T11:43:27;8.60;99.90
45983;DHT22;31711;47.158;7.346;2023-01-06T11:46:02;8.50;99.90
45983;DHT22;31711;47.158;7.346;2023-01-06T11:48:32;8.50;99.90
45983;DHT22;31711;47.158;7.346;2023-01-06T11:51:01;8.50;99.90
45983;DHT22;31711;47.158;7.346;2023-01-06T11:53:28;8.60;99.90
45983;DHT22;31711;47.158;7.346;2023-01-06T12:06:39;8.50;99.90
45983;DHT22;31711;47.158;7.346;2023-01-06T12:09:24;8.30;99.90
45983;DHT22;31711;47.158;7.346;2023-01-06T12:11:55;8.30;99.90
45983;DHT22;31711;47.158;7.346;2023-01-06T12:14:27;8.30;99.90
45983;DHT22;31711;47.158;7.346;2023-01-06T12:19:44;8.00;99.90
45983;DHT22;31711;47.158;7.346;2023-01-06T12:25:05;8.00;99.90
45983;DHT22;31711;47.158;7.346;2023-01-06T12:27:43;8.00;99.90
45983;DHT22;31711;47.158;7.346;2023-01-06T12:32:48;7.90;99.90
45983;DHT22;31711;47.158;7.346;2023-01-06T12:35:21;7.90;99.90
45983;DHT22;31711;47.158;7.346;2023-01-06T12:37:54;8.00;99.90
45983;DHT22;31711;47.158;7.346;2023-01-06T12:40:27;8.00;99.90
45983;DHT22;31711;47.158;7.346;2023-01-06T12:43:17;8.10;99.90
45983;DHT22;31711;47.158;7.346;2023-01-06T12:45:52;8.10;99.90
45983;DHT22;31711;47.158;7.346;2023-01-06T12:53:42;8.10;99.90
45983;DHT22;31711;47.158;7.346;2023-01-06T12:56:41;8.10;99.90
45983;DHT22;31711;47.158;7.346;2023-01-06T13:08:05;8.50;99.90
45983;DHT22;31711;47.158;7.346;2023-01-06T13:10:40;8.50;99.90
45983;DHT22;31711;47.158;7.346;2023-01-06T13:16:01;8.30;99.90
45983;DHT22;31711;47.158;7.346;2023-01-06T13:18:38;8.40;99.90
45983;DHT22;31711;47.158;7.346;2023-01-06T13:21:16;8.40;99.90
45983;DHT22;31711;47.158;7.346;2023-01-06T13:37:50;8.30;99.90
45983;DHT22;31711;47.158;7.346;2023-01-06T13:40:17;8.30;99.90
45983;DHT22;31711;47.158;7.346;2023-01-06T13:42:54;8.40;99.90
45983;DHT22;31711;47.158;7.346;2023-01-06T13:45:43;8.30;99.90
45983;DHT22;31711;47.158;7.346;2023-01-06T13:48:17;8.20;99.90
45983;DHT22;31711;47.158;7.346;2023-01-06T13:50:44;8.30;99.90
45983;DHT22;31711;47.158;7.346;2023-01-06T13:53:16;8.30;99.90
45983;DHT22;31711;47.158;7.346;2023-01-06T13:55:43;8.30;99.90
45983;DHT22;31711;47.158;7.346;2023-01-06T14:01:08;8.30;99.90
45983;DHT22;31711;47.158;7.346;2023-01-06T14:03:36;8.10;99.90
45983;DHT22;31711;47.158;7.346;2023-01-06T14:06:03;8.10;99.90
45983;DHT22;31711;47.158;7.346;2023-01-06T14:08:39;8.20;99.90
45983;DHT22;31711;47.158;7.346;2023-01-06T14:11:30;8.20;99.90
45983;DHT22;31711;47.158;7.346;2023-01-06T14:14:02;8.20;99.90
45983;DHT22;31711;47.158;7.346;2023-01-06T14:16:47;8.30;99.90
45983;DHT22;31711;47.158;7.346;2023-01-06T14:19:17;8.30;99.90
45983;DHT22;31711;47.158;7.346;2023-01-06T14:21:45;8.30;99.90
45983;DHT22;31711;47.158;7.346;2023-01-06T14:24:24;8.20;99.90
45983;DHT22;31711;47.158;7.346;2023-01-06T14:26:57;8.20;99.90
45983;DHT22;31711;47.158;7.346;2023-01-06T14:34:59;8.30;99.90
45983;DHT22;31711;47.158;7.346;2023-01-06T14:37:35;8.20;99.90
45983;DHT22;31711;47.158;7.346;2023-01-06T14:40:03;8.20;99.90
45983;DHT22;31711;47.158;7.346;2023-01-06T14:42:37;8.20;99.90
45983;DHT22;31711;47.158;7.346;2023-01-06T14:45:33;8.10;99.90
45983;DHT22;31711;47.158;7.346;2023-01-06T14:48:04;8.00;99.90
45983;DHT22;31711;47.158;7.346;2023-01-06T14:50:40;8.10;99.90
45983;DHT22;31711;47.158;7.346;2023-01-06T14:53:28;8.20;99.90
45983;DHT22;31711;47.158;7.346;2023-01-06T14:55:56;8.20;99.90
45983;DHT22;31711;47.158;7.346;2023-01-06T14:58:34;8.20;99.90
45983;DHT22;31711;47.158;7.346;2023-01-06T15:01:02;8.20;99.90
45983;DHT22;31711;47.158;7.346;2023-01-06T15:03:29;8.20;99.90
45983;DHT22;31711;47.158;7.346;2023-01-06T15:06:27;8.20;99.90
45983;DHT22;31711;47.158;7.346;2023-01-06T15:08:54;8.30;99.90
45983;DHT22;31711;47.158;7.346;2023-01-06T15:11:26;8.30;99.90
45983;DHT22;31711;47.158;7.346;2023-01-06T15:13:52;8.30;99.90
45983;DHT22;31711;47.158;7.346;2023-01-06T15:16:38;8.30;99.90
45983;DHT22;31711;47.158;7.346;2023-01-06T15:19:12;8.30;99.90
45983;DHT22;31711;47.158;7.346;2023-01-06T15:21:42;8.40;99.90
45983;DHT22;31711;47.158;7.346;2023-01-06T15:26:46;8.50;99.90
45983;DHT22;31711;47.158;7.346;2023-01-06T15:29:18;8.50;99.90
45983;DHT22;31711;47.158;7.346;2023-01-06T15:31:45;8.50;99.90
45983;DHT22;31711;47.158;7.346;2023-01-06T15:34:39;8.50;99.90
45983;DHT22;31711;47.158;7.346;2023-01-06T15:37:06;8.50;99.90
45983;DHT22;31711;47.158;7.346;2023-01-06T15:39:33;8.50;99.90
45983;DHT22;31711;47.158;7.346;2023-01-06T15:42:03;8.50;99.90
45983;DHT22;31711;47.158;7.346;2023-01-06T15:44:31;8.50;99.90
45983;DHT22;31711;47.158;7.346;2023-01-06T15:49:51;8.50;99.90
45983;DHT22;31711;47.158;7.346;2023-01-06T15:52:25;8.40;99.90
45983;DHT22;31711;47.158;7.346;2023-01-06T15:54:53;8.40;99.90
45983;DHT22;31711;47.158;7.346;2023-01-06T15:57:20;8.30;99.90
45983;DHT22;31711;47.158;7.346;2023-01-06T15:59:54;8.20;99.90
45983;DHT22;31711;47.158;7.346;2023-01-06T16:02:24;8.20;99.90
45983;DHT22;31711;47.158;7.346;2023-01-06T16:04:51;8.20;99.90
45983;DHT22;31711;47.158;7.346;2023-01-06T16:07:36;8.20;99.90
45983;DHT22;31711;47.158;7.346;2023-01-06T16:10:35;8.20;99.90
45983;DHT22;31711;47.158;7.346;2023-01-06T16:18:14;8.10;99.90
45983;DHT22;31711;47.158;7.346;2023-01-06T16:20:42;8.10;99.90
45983;DHT22;31711;47.158;7.346;2023-01-06T16:23:26;7.90;99.90
45983;DHT22;31711;47.158;7.346;2023-01-06T16:28:33;8.10;99.90
45983;DHT22;31711;47.158;7.346;2023-01-06T16:31:11;8.10;99.90
45983;DHT22;31711;47.158;7.346;2023-01-06T16:33:42;8.10;99.90
45983;DHT22;31711;47.158;7.346;2023-01-06T16:36:16;8.10;99.90
45983;DHT22;31711;47.158;7.346;2023-01-06T16:38:43;8.10;99.90
45983;DHT22;31711;47.158;7.346;2023-01-06T16:41:18;8.20;99.90
45983;DHT22;31711;47.158;7.346;2023-01-06T16:43:45;8.10;99.90
45983;DHT22;31711;47.158;7.346;2023-01-06T16:46:20;8.00;99.90
45983;DHT22;31711;47.158;7.346;2023-01-06T16:48:48;8.00;99.90
45983;DHT22;31711;47.158;7.346;2023-01-06T16:51:16;8.00;99.90
45983;DHT22;31711;47.158;7.346;2023-01-06T16:53:42;8.10;99.90
45983;DHT22;31711;47.158;7.346;2023-01-06T16:56:17;8.10;99.90
45983;DHT22;31711;47.158;7.346;2023-01-06T16:58:44;8.10;99.90
45983;DHT22;31711;47.158;7.346;2023-01-06T17:01:19;8.10;99.90
45983;DHT22;31711;47.158;7.346;2023-01-06T17:03:54;8.00;99.90
45983;DHT22;31711;47.158;7.346;2023-01-06T17:06:23;8.00;99.90
45983;DHT22;31711;47.158;7.346;2023-01-06T17:08:52;7.90;99.90
45983;DHT22;31711;47.158;7.346;2023-01-06T17:11:21;7.80;99.90
45983;DHT22;31711;47.158;7.346;2023-01-06T17:14:00;7.80;99.90
45983;DHT22;31711;47.158;7.346;2023-01-06T17:16:30;7.70;99.90
45983;DHT22;31711;47.158;7.346;2023-01-06T17:19:00;7.70;99.90
45983;DHT22;31711;47.158;7.346;2023-01-06T17:21:37;7.70;99.90
45983;DHT22;31711;47.158;7.346;2023-01-06T17:24:18;7.80;99.90
45983;DHT22;31711;47.158;7.346;2023-01-06T17:26:59;7.80;99.90
45983;DHT22;31711;47.158;7.346;2023-01-06T17:29:29;7.80;99.90
45983;DHT22;31711;47.158;7.346;2023-01-06T17:32:00;7.80;99.90
45983;DHT22;31711;47.158;7.346;2023-01-06T17:34:30;7.90;99.90
45983;DHT22;31711;47.158;7.346;2023-01-06T17:36:57;7.90;99.90
45983;DHT22;31711;47.158;7.346;2023-01-06T17:39:34;7.90;99.90
45983;DHT22;31711;47.158;7.346;2023-01-06T17:44:53;7.80;99.90
45983;DHT22;31711;47.158;7.346;2023-01-06T17:52:16;7.90;99.90
45983;DHT22;31711;47.158;7.346;2023-01-06T17:54:55;8.00;99.90
45983;DHT22;31711;47.158;7.346;2023-01-06T17:57:41;8.00;99.90
45983;DHT22;31711;47.158;7.346;2023-01-06T18:02:58;8.10;99.90
45983;DHT22;31711;47.158;7.346;2023-01-06T18:10:34;8.00;99.90
45983;DHT22;31711;47.158;7.346;2023-01-06T18:13:14;8.00;99.90
45983;DHT22;31711;47.158;7.346;2023-01-06T18:15:42;8.00;99.90
45983;DHT22;31711;47.158;7.346;2023-01-06T18:18:23;7.90;99.90
45983;DHT22;31711;47.158;7.346;2023-01-06T18:20:53;7.90;99.90
45983;DHT22;31711;47.158;7.346;2023-01-06T18:23:22;8.00;99.90
45983;DHT22;31711;47.158;7.346;2023-01-06T18:25:55;8.00;99.90
45983;DHT22;31711;47.158;7.346;2023-01-06T18:28:21;8.10;99.90
45983;DHT22;31711;47.158;7.346;2023-01-06T18:30:57;8.00;99.90
45983;DHT22;31711;47.158;7.346;2023-01-06T18:33:23;8.10;99.90
45983;DHT22;31711;47.158;7.346;2023-01-06T18:35:50;8.00;99.90
45983;DHT22;31711;47.158;7.346;2023-01-06T18:38:24;8.00;99.90
45983;DHT22;31711;47.158;7.346;2023-01-06T18:40:51;8.00;99.90
45983;DHT22;31711;47.158;7.346;2023-01-06T18:45:56;8.10;99.90
45983;DHT22;31711;47.158;7.346;2023-01-06T18:48:32;8.00;99.90
45983;DHT22;31711;47.158;7.346;2023-01-06T18:51:00;8.10;99.90
45983;DHT22;31711;47.158;7.346;2023-01-06T18:53:29;8.00;99.90
45983;DHT22;31711;47.158;7.346;2023-01-06T18:56:07;8.10;99.90
45983;DHT22;31711;47.158;7.346;2023-01-06T19:01:25;7.90;99.90
45983;DHT22;31711;47.158;7.346;2023-01-06T19:06:36;8.00;99.90
45983;DHT22;31711;47.158;7.346;2023-01-06T19:09:47;8.00;99.90
45983;DHT22;31711;47.158;7.346;2023-01-06T19:12:15;8.00;99.90
45983;DHT22;31711;47.158;7.346;2023-01-06T19:14:47;7.90;99.90
45983;DHT22;31711;47.158;7.346;2023-01-06T19:19:49;7.90;99.90
45983;DHT22;31711;47.158;7.346;2023-01-06T19:22:22;7.90;99.90
45983;DHT22;31711;47.158;7.346;2023-01-06T19:27:33;7.90;99.90
45983;DHT22;31711;47.158;7.346;2023-01-06T19:32:38;7.90;99.90
45983;DHT22;31711;47.158;7.346;2023-01-06T19:35:20;7.90;99.90
45983;DHT22;31711;47.158;7.346;2023-01-06T19:37:47;7.90;99.90
45983;DHT22;31711;47.158;7.346;2023-01-06T19:40:28;8.00;99.90
45983;DHT22;31711;47.158;7.346;2023-01-06T19:43:08;7.90;99.90
45983;DHT22;31711;47.158;7.346;2023-01-06T19:45:36;7.90;99.90
45983;DHT22;31711;47.158;7.346;2023-01-06T19:48:12;8.00;99.90
45983;DHT22;31711;47.158;7.346;2023-01-06T19:50:41;7.90;99.90
45983;DHT22;31711;47.158;7.346;2023-01-06T19:53:27;7.90;99.90
45983;DHT22;31711;47.158;7.346;2023-01-06T19:55:55;7.70;99.90
45983;DHT22;31711;47.158;7.346;2023-01-06T19:58:30;7.80;99.90
45983;DHT22;31711;47.158;7.346;2023-01-06T20:00:59;7.70;99.90
45983;DHT22;31711;47.158;7.346;2023-01-06T20:05:55;7.90;99.90
45983;DHT22;31711;47.158;7.346;2023-01-06T20:08:21;7.80;99.90